sensor_id;sensor_type;location;lat;lon;timestamp;P1;durP1;ratioP1;P2;durP2;ratioP2
10230;SDS011;62604;49.432;8.680;2024-01-27T00:00:23;3.57;;;2.50;;
10230;SDS011;62604;49.432;8.680;2024-01-27T00:02:50;3.80;;;2.80;;
10230;SDS011;62604;49.432;8.680;2024-01-27T00:05:18;2.67;;;2.23;;
10230;SDS011;62604;49.432;8.680;2024-01-27T00:07:44;4.33;;;2.90;;
10230;SDS011;62604;49.432;8.680;2024-01-27T00:10:11;2.50;;;2.30;;
10230;SDS011;62604;49.432;8.680;2024-01-27T00:12:39;6.53;;;3.13;;
10230;SDS011;62604;49.432;8.680;2024-01-27T00:15:08;7.37;;;2.97;;
10230;SDS011;62604;49.432;8.680;2024-01-27T00:17:35;4.97;;;3.07;;
10230;SDS011;62604;49.432;8.680;2024-01-27T00:20:02;6.93;;;3.10;;
10230;SDS011;62604;49.432;8.680;2024-01-27T00:22:30;6.07;;;2.73;;
10230;SDS011;62604;49.432;8.680;2024-01-27T00:24:57;9.40;;;3.63;;
10230;SDS011;62604;49.432;8.680;2024-01-27T00:27:24;5.67;;;3.47;;
10230;SDS011;62604;49.432;8.680;2024-01-27T00:29:50;5.47;;;3.13;;
10230;SDS011;62604;49.432;8.680;2024-01-27T00:32:18;7.03;;;3.77;;
10230;SDS011;62604;49.432;8.680;2024-01-27T00:34:45;8.00;;;3.27;;
10230;SDS011;62604;49.432;8.680;2024-01-27T00:37:12;5.07;;;3.30;;
10230;SDS011;62604;49.432;8.680;2024-01-27T00:39:39;6.63;;;3.47;;
10230;SDS011;62604;49.432;8.680;2024-01-27T00:42:06;5.13;;;2.30;;
10230;SDS011;62604;49.432;8.680;2024-01-27T00:44:33;4.97;;;2.70;;
10230;SDS011;62604;49.432;8.680;2024-01-27T00:47:01;5.33;;;2.80;;
10230;SDS011;62604;49.432;8.680;2024-01-27T00:49:30;5.30;;;3.00;;
10230;SDS011;62604;49.432;8.680;2024-01-27T00:51:57;4.87;;;2.33;;
10230;SDS011;62604;49.432;8.680;2024-01-27T00:54:24;2.30;;;2.10;;
10230;SDS011;62604;49.432;8.680;2024-01-27T00:56:51;3.30;;;2.23;;
10230;SDS011;62604;49.432;8.680;2024-01-27T00:59:18;4.97;;;2.30;;
10230;SDS011;62604;49.432;8.680;2024-01-27T01:01:45;4.13;;;2.40;;
10230;SDS011;62604;49.432;8.680;2024-01-27T01:04:12;6.53;;;2.60;;
10230;SDS011;62604;49.432;8.680;2024-01-27T01:06:41;2.67;;;2.20;;
10230;SDS011;62604;49.432;8.680;2024-01-27T01:09:08;3.90;;;2.17;;
10230;SDS011;62604;49.432;8.680;2024-01-27T01:11:35;2.67;;;2.47;;
10230;SDS011;62604;49.432;8.680;2024-01-27T01:14:02;2.33;;;2.13;;
10230;SDS011;62604;49.432;8.680;2024-01-27T01:16:29;5.17;;;2.17;;
10230;SDS011;62604;49.432;8.680;2024-01-27T01:18:56;3.70;;;1.87;;
10230;SDS011;62604;49.432;8.680;2024-01-27T01:21:23;3.03;;;2.30;;
10230;SDS011;62604;49.432;8.680;2024-01-27T01:23:51;2.07;;;1.80;;
10230;SDS011;62604;49.432;8.680;2024-01-27T01:26:18;2.60;;;2.20;;
10230;SDS011;62604;49.432;8.680;2024-01-27T01:28:45;2.33;;;1.73;;
10230;SDS011;62604;49.432;8.680;2024-01-27T01:31:12;4.23;;;2.50;;
10230;SDS011;62604;49.432;8.680;2024-01-27T01:33:39;3.97;;;2.30;;
10230;SDS011;62604;49.432;8.680;2024-01-27T01:36:06;3.50;;;2.07;;
10230;SDS011;62604;49.432;8.680;2024-01-27T01:38:33;5.07;;;2.13;;
10230;SDS011;62604;49.432;8.680;2024-01-27T01:41:02;5.00;;;2.00;;
10230;SDS011;62604;49.432;8.680;2024-01-27T01:43:29;5.20;;;2.40;;
10230;SDS011;62604;49.432;8.680;2024-01-27T01:45:56;4.67;;;2.20;;
10230;SDS011;62604;49.432;8.680;2024-01-27T01:48:23;3.27;;;2.10;;
10230;SDS011;62604;49.432;8.680;2024-01-27T01:50:50;2.13;;;1.93;;
10230;SDS011;62604;49.432;8.680;2024-01-27T01:53:17;3.87;;;2.40;;
10230;SDS011;62604;49.432;8.680;2024-01-27T01:55:45;3.03;;;2.33;;
10230;SDS011;62604;49.432;8.680;2024-01-27T01:58:14;3.87;;;2.60;;
10230;SDS011;62604;49.432;8.680;2024-01-27T02:00:41;2.33;;;1.93;;
10230;SDS011;62604;49.432;8.680;2024-01-27T02:03:17;2.10;;;1.90;;
10230;SDS011;62604;49.432;8.680;2024-01-27T02:05:44;5.17;;;2.40;;
10230;SDS011;62604;49.432;8.680;2024-01-27T02:08:13;5.00;;;2.40;;
10230;SDS011;62604;49.432;8.680;2024-01-27T02:10:40;3.67;;;2.10;;
10230;SDS011;62604;49.432;8.680;2024-01-27T02:13:17;2.13;;;1.93;;
10230;SDS011;62604;49.432;8.680;2024-01-27T02:15:45;4.20;;;2.27;;
10230;SDS011;62604;49.432;8.680;2024-01-27T02:18:12;6.80;;;2.00;;
10230;SDS011;62604;49.432;8.680;2024-01-27T02:20:39;6.50;;;2.57;;
10230;SDS011;62604;49.432;8.680;2024-01-27T02:23:06;5.57;;;2.50;;
10230;SDS011;62604;49.432;8.680;2024-01-27T02:25:35;3.43;;;2.40;;
10230;SDS011;62604;49.432;8.680;2024-01-27T02:28:02;7.20;;;3.10;;
10230;SDS011;62604;49.432;8.680;2024-01-27T02:30:29;6.37;;;2.17;;
10230;SDS011;62604;49.432;8.680;2024-01-27T02:32:57;2.67;;;2.03;;
10230;SDS011;62604;49.432;8.680;2024-01-27T02:35:25;7.13;;;2.70;;
10230;SDS011;62604;49.432;8.680;2024-01-27T02:37:52;5.43;;;2.90;;
10230;SDS011;62604;49.432;8.680;2024-01-27T02:40:19;4.73;;;2.70;;
10230;SDS011;62604;49.432;8.680;2024-01-27T02:42:48;4.13;;;2.77;;
10230;SDS011;62604;49.432;8.680;2024-01-27T02:45:15;2.30;;;2.10;;
10230;SDS011;62604;49.432;8.680;2024-01-27T02:47:42;3.03;;;2.27;;
10230;SDS011;62604;49.432;8.680;2024-01-27T02:50:09;2.83;;;2.53;;
10230;SDS011;62604;49.432;8.680;2024-01-27T02:52:36;7.27;;;2.83;;
10230;SDS011;62604;49.432;8.680;2024-01-27T02:55:03;3.07;;;2.77;;
10230;SDS011;62604;49.432;8.680;2024-01-27T02:57:31;3.13;;;2.40;;
10230;SDS011;62604;49.432;8.680;2024-01-27T02:59:59;13.33;;;3.17;;
10230;SDS011;62604;49.432;8.680;2024-01-27T03:02:26;5.07;;;2.23;;
10230;SDS011;62604;49.432;8.680;2024-01-27T03:04:54;4.20;;;2.17;;
10230;SDS011;62604;49.432;8.680;2024-01-27T03:07:22;4.47;;;2.13;;
10230;SDS011;62604;49.432;8.680;2024-01-27T03:09:53;3.87;;;2.00;;
10230;SDS011;62604;49.432;8.680;2024-01-27T03:12:21;8.03;;;2.47;;
10230;SDS011;62604;49.432;8.680;2024-01-27T03:14:49;3.23;;;1.80;;
10230;SDS011;62604;49.432;8.680;2024-01-27T03:17:24;6.13;;;2.83;;
10230;SDS011;62604;49.432;8.680;2024-01-27T03:19:55;2.40;;;2.17;;
10230;SDS011;62604;49.432;8.680;2024-01-27T03:22:25;3.23;;;2.47;;
10230;SDS011;62604;49.432;8.680;2024-01-27T03:24:54;7.53;;;2.43;;
10230;SDS011;62604;49.432;8.680;2024-01-27T03:27:23;2.33;;;2.13;;
10230;SDS011;62604;49.432;8.680;2024-01-27T03:29:50;6.87;;;2.13;;
10230;SDS011;62604;49.432;8.680;2024-01-27T03:32:17;4.37;;;2.80;;
10230;SDS011;62604;49.432;8.680;2024-01-27T03:34:46;4.30;;;3.10;;
10230;SDS011;62604;49.432;8.680;2024-01-27T03:37:13;3.67;;;3.03;;
10230;SDS011;62604;49.432;8.680;2024-01-27T03:39:41;4.53;;;2.03;;
10230;SDS011;62604;49.432;8.680;2024-01-27T03:42:08;2.83;;;2.13;;
10230;SDS011;62604;49.432;8.680;2024-01-27T03:44:37;4.47;;;2.60;;
10230;SDS011;62604;49.432;8.680;2024-01-27T03:47:05;3.97;;;2.37;;
10230;SDS011;62604;49.432;8.680;2024-01-27T03:49:32;8.87;;;2.97;;
10230;SDS011;62604;49.432;8.680;2024-01-27T03:52:06;9.07;;;2.23;;
10230;SDS011;62604;49.432;8.680;2024-01-27T03:54:37;6.67;;;2.33;;
10230;SDS011;62604;49.432;8.680;2024-01-27T03:57:14;7.90;;;2.10;;
10230;SDS011;62604;49.432;8.680;2024-01-27T03:59:43;3.83;;;2.10;;
10230;SDS011;62604;49.432;8.680;2024-01-27T04:02:20;7.97;;;2.93;;
10230;SDS011;62604;49.432;8.680;2024-01-27T04:04:47;6.27;;;2.83;;
10230;SDS011;62604;49.432;8.680;2024-01-27T04:07:31;8.60;;;2.70;;
10230;SDS011;62604;49.432;8.680;2024-01-27T04:09:58;9.37;;;2.80;;
10230;SDS011;62604;49.432;8.680;2024-01-27T04:12:28;4.67;;;2.07;;
10230;SDS011;62604;49.432;8.680;2024-01-27T04:14:56;5.10;;;2.93;;
10230;SDS011;62604;49.432;8.680;2024-01-27T04:17:29;8.87;;;2.40;;
10230;SDS011;62604;49.432;8.680;2024-01-27T04:19:57;4.03;;;2.53;;
10230;SDS011;62604;49.432;8.680;2024-01-27T04:22:25;8.33;;;2.90;;
10230;SDS011;62604;49.432;8.680;2024-01-27T04:24:57;2.93;;;2.50;;
10230;SDS011;62604;49.432;8.680;2024-01-27T04:27:24;3.17;;;2.53;;
10230;SDS011;62604;49.432;8.680;2024-01-27T04:29:51;5.70;;;2.37;;
10230;SDS011;62604;49.432;8.680;2024-01-27T04:32:18;2.30;;;2.10;;
10230;SDS011;62604;49.432;8.680;2024-01-27T04:34:46;4.43;;;2.20;;
10230;SDS011;62604;49.432;8.680;2024-01-27T04:37:13;3.03;;;2.60;;
10230;SDS011;62604;49.432;8.680;2024-01-27T04:39:40;9.07;;;2.10;;
10230;SDS011;62604;49.432;8.680;2024-01-27T04:42:08;2.60;;;2.40;;
10230;SDS011;62604;49.432;8.680;2024-01-27T04:44:39;4.77;;;2.83;;
10230;SDS011;62604;49.432;8.680;2024-01-27T04:47:06;3.27;;;2.33;;
10230;SDS011;62604;49.432;8.680;2024-01-27T04:49:33;4.67;;;2.33;;
10230;SDS011;62604;49.432;8.680;2024-01-27T04:52:00;6.47;;;2.80;;
10230;SDS011;62604;49.432;8.680;2024-01-27T04:54:28;6.57;;;2.97;;
10230;SDS011;62604;49.432;8.680;2024-01-27T04:56:55;5.47;;;2.33;;
10230;SDS011;62604;49.432;8.680;2024-01-27T04:59:23;7.27;;;2.67;;
10230;SDS011;62604;49.432;8.680;2024-01-27T05:01:50;6.70;;;3.00;;
10230;SDS011;62604;49.432;8.680;2024-01-27T05:04:18;3.80;;;2.87;;
10230;SDS011;62604;49.432;8.680;2024-01-27T05:06:45;5.40;;;3.47;;
10230;SDS011;62604;49.432;8.680;2024-01-27T05:09:12;3.80;;;3.07;;
10230;SDS011;62604;49.432;8.680;2024-01-27T05:11:42;4.83;;;2.90;;
10230;SDS011;62604;49.432;8.680;2024-01-27T05:14:12;5.23;;;3.00;;
10230;SDS011;62604;49.432;8.680;2024-01-27T05:16:48;9.03;;;2.80;;
10230;SDS011;62604;49.432;8.680;2024-01-27T05:19:17;5.73;;;2.63;;
10230;SDS011;62604;49.432;8.680;2024-01-27T05:21:45;8.00;;;3.53;;
10230;SDS011;62604;49.432;8.680;2024-01-27T05:24:12;9.70;;;3.80;;
10230;SDS011;62604;49.432;8.680;2024-01-27T05:26:39;4.13;;;3.20;;
10230;SDS011;62604;49.432;8.680;2024-01-27T05:29:08;8.67;;;3.57;;
10230;SDS011;62604;49.432;8.680;2024-01-27T05:31:36;6.37;;;3.17;;
10230;SDS011;62604;49.432;8.680;2024-01-27T05:34:06;12.40;;;3.77;;
10230;SDS011;62604;49.432;8.680;2024-01-27T05:36:33;8.27;;;3.40;;
10230;SDS011;62604;49.432;8.680;2024-01-27T05:39:01;4.60;;;3.40;;
10230;SDS011;62604;49.432;8.680;2024-01-27T05:41:31;5.17;;;3.60;;
10230;SDS011;62604;49.432;8.680;2024-01-27T05:43:59;6.93;;;3.30;;
10230;SDS011;62604;49.432;8.680;2024-01-27T05:46:26;6.00;;;3.53;;
10230;SDS011;62604;49.432;8.680;2024-01-27T05:48:57;6.10;;;3.17;;
10230;SDS011;62604;49.432;8.680;2024-01-27T05:51:39;10.27;;;3.33;;
10230;SDS011;62604;49.432;8.680;2024-01-27T05:54:05;5.60;;;3.20;;
10230;SDS011;62604;49.432;8.680;2024-01-27T05:56:35;6.07;;;3.33;;
10230;SDS011;62604;49.432;8.680;2024-01-27T05:59:03;4.43;;;3.27;;
10230;SDS011;62604;49.432;8.680;2024-01-27T06:01:33;4.13;;;3.07;;
10230;SDS011;62604;49.432;8.680;2024-01-27T06:04:00;4.30;;;3.47;;
10230;SDS011;62604;49.432;8.680;2024-01-27T06:06:27;3.40;;;3.07;;
10230;SDS011;62604;49.432;8.680;2024-01-27T06:08:58;6.00;;;2.97;;
10230;SDS011;62604;49.432;8.680;2024-01-27T06:11:27;5.87;;;2.73;;
10230;SDS011;62604;49.432;8.680;2024-01-27T06:13:57;4.30;;;3.10;;
10230;SDS011;62604;49.432;8.680;2024-01-27T06:16:25;4.53;;;2.93;;
10230;SDS011;62604;49.432;8.680;2024-01-27T06:18:52;6.27;;;3.50;;
10230;SDS011;62604;49.432;8.680;2024-01-27T06:21:19;4.10;;;3.30;;
10230;SDS011;62604;49.432;8.680;2024-01-27T06:23:46;3.77;;;3.27;;
10230;SDS011;62604;49.432;8.680;2024-01-27T06:26:15;6.40;;;2.60;;
10230;SDS011;62604;49.432;8.680;2024-01-27T06:28:42;5.97;;;2.80;;
10230;SDS011;62604;49.432;8.680;2024-01-27T06:31:09;6.87;;;2.70;;
10230;SDS011;62604;49.432;8.680;2024-01-27T06:33:37;5.03;;;2.73;;
10230;SDS011;62604;49.432;8.680;2024-01-27T06:36:04;8.90;;;3.03;;
10230;SDS011;62604;49.432;8.680;2024-01-27T06:38:31;4.43;;;3.00;;
10230;SDS011;62604;49.432;8.680;2024-01-27T06:40:58;5.77;;;3.07;;
10230;SDS011;62604;49.432;8.680;2024-01-27T06:43:27;9.27;;;3.20;;
10230;SDS011;62604;49.432;8.680;2024-01-27T06:45:54;3.43;;;2.87;;
10230;SDS011;62604;49.432;8.680;2024-01-27T06:48:22;6.57;;;3.50;;
10230;SDS011;62604;49.432;8.680;2024-01-27T06:50:50;4.57;;;2.97;;
10230;SDS011;62604;49.432;8.680;2024-01-27T06:53:18;8.80;;;2.83;;
10230;SDS011;62604;49.432;8.680;2024-01-27T06:55:45;3.40;;;2.20;;
10230;SDS011;62604;49.432;8.680;2024-01-27T06:58:12;5.93;;;2.20;;
10230;SDS011;62604;49.432;8.680;2024-01-27T07:00:40;7.57;;;2.33;;
10230;SDS011;62604;49.432;8.680;2024-01-27T07:03:07;5.43;;;2.03;;
10230;SDS011;62604;49.432;8.680;2024-01-27T07:05:34;5.90;;;2.33;;
10230;SDS011;62604;49.432;8.680;2024-01-27T07:08:04;2.67;;;2.07;;
10230;SDS011;62604;49.432;8.680;2024-01-27T07:10:33;3.83;;;2.27;;
10230;SDS011;62604;49.432;8.680;2024-01-27T07:13:01;4.63;;;2.83;;
10230;SDS011;62604;49.432;8.680;2024-01-27T07:15:29;8.10;;;2.97;;
10230;SDS011;62604;49.432;8.680;2024-01-27T07:17:57;3.87;;;2.33;;
10230;SDS011;62604;49.432;8.680;2024-01-27T07:20:25;2.57;;;2.37;;
10230;SDS011;62604;49.432;8.680;2024-01-27T07:22:54;2.70;;;2.20;;
10230;SDS011;62604;49.432;8.680;2024-01-27T07:25:21;4.63;;;2.60;;
10230;SDS011;62604;49.432;8.680;2024-01-27T07:27:49;2.70;;;2.50;;
10230;SDS011;62604;49.432;8.680;2024-01-27T07:30:17;4.10;;;2.40;;
10230;SDS011;62604;49.432;8.680;2024-01-27T07:32:44;3.73;;;2.40;;
10230;SDS011;62604;49.432;8.680;2024-01-27T07:35:12;3.50;;;2.70;;
10230;SDS011;62604;49.432;8.680;2024-01-27T07:37:40;7.73;;;2.53;;
10230;SDS011;62604;49.432;8.680;2024-01-27T07:40:08;3.30;;;2.93;;
10230;SDS011;62604;49.432;8.680;2024-01-27T07:42:50;4.83;;;2.67;;
10230;SDS011;62604;49.432;8.680;2024-01-27T07:45:17;4.93;;;3.27;;
10230;SDS011;62604;49.432;8.680;2024-01-27T07:47:44;3.63;;;2.80;;
10230;SDS011;62604;49.432;8.680;2024-01-27T07:50:15;5.57;;;3.27;;
10230;SDS011;62604;49.432;8.680;2024-01-27T07:52:42;6.03;;;3.00;;
10230;SDS011;62604;49.432;8.680;2024-01-27T07:55:14;5.33;;;3.03;;
10230;SDS011;62604;49.432;8.680;2024-01-27T07:57:42;5.90;;;3.33;;
10230;SDS011;62604;49.432;8.680;2024-01-27T08:00:14;4.67;;;3.13;;
10230;SDS011;62604;49.432;8.680;2024-01-27T08:02:57;7.47;;;3.80;;
10230;SDS011;62604;49.432;8.680;2024-01-27T08:05:27;5.63;;;3.57;;
10230;SDS011;62604;49.432;8.680;2024-01-27T08:07:54;4.53;;;3.10;;
10230;SDS011;62604;49.432;8.680;2024-01-27T08:10:20;6.33;;;3.80;;
10230;SDS011;62604;49.432;8.680;2024-01-27T08:12:48;8.03;;;4.07;;
10230;SDS011;62604;49.432;8.680;2024-01-27T08:15:15;8.60;;;4.33;;
10230;SDS011;62604;49.432;8.680;2024-01-27T08:17:42;5.37;;;3.43;;
10230;SDS011;62604;49.432;8.680;2024-01-27T08:20:09;6.23;;;2.90;;
10230;SDS011;62604;49.432;8.680;2024-01-27T08:22:38;9.27;;;3.10;;
10230;SDS011;62604;49.432;8.680;2024-01-27T08:25:06;3.77;;;2.70;;
10230;SDS011;62604;49.432;8.680;2024-01-27T08:27:33;10.13;;;3.60;;
10230;SDS011;62604;49.432;8.680;2024-01-27T08:30:00;12.80;;;3.40;;
10230;SDS011;62604;49.432;8.680;2024-01-27T08:32:27;7.23;;;3.57;;
10230;SDS011;62604;49.432;8.680;2024-01-27T08:34:54;4.77;;;2.90;;
10230;SDS011;62604;49.432;8.680;2024-01-27T08:37:21;4.73;;;3.00;;
10230;SDS011;62604;49.432;8.680;2024-01-27T08:39:50;3.27;;;2.63;;
10230;SDS011;62604;49.432;8.680;2024-01-27T08:42:17;3.87;;;2.50;;
10230;SDS011;62604;49.432;8.680;2024-01-27T08:44:44;5.13;;;2.53;;
10230;SDS011;62604;49.432;8.680;2024-01-27T08:47:11;2.37;;;2.17;;
10230;SDS011;62604;49.432;8.680;2024-01-27T08:49:38;15.73;;;3.03;;
10230;SDS011;62604;49.432;8.680;2024-01-27T08:52:05;8.30;;;2.87;;
10230;SDS011;62604;49.432;8.680;2024-01-27T08:54:32;5.43;;;2.93;;
10230;SDS011;62604;49.432;8.680;2024-01-27T08:57:02;3.77;;;2.90;;
10230;SDS011;62604;49.432;8.680;2024-01-27T08:59:30;2.80;;;2.50;;
10230;SDS011;62604;49.432;8.680;2024-01-27T09:01:58;3.57;;;2.97;;
10230;SDS011;62604;49.432;8.680;2024-01-27T09:04:26;5.67;;;2.83;;
10230;SDS011;62604;49.432;8.680;2024-01-27T09:06:53;2.67;;;2.40;;
10230;SDS011;62604;49.432;8.680;2024-01-27T09:09:20;5.67;;;2.67;;
10230;SDS011;62604;49.432;8.680;2024-01-27T09:11:47;4.73;;;2.50;;
10230;SDS011;62604;49.432;8.680;2024-01-27T09:14:16;5.50;;;3.30;;
10230;SDS011;62604;49.432;8.680;2024-01-27T09:16:43;5.20;;;3.10;;
10230;SDS011;62604;49.432;8.680;2024-01-27T09:19:11;9.20;;;3.83;;
10230;SDS011;62604;49.432;8.680;2024-01-27T09:21:38;3.60;;;3.03;;
10230;SDS011;62604;49.432;8.680;2024-01-27T09:24:05;9.53;;;4.33;;
10230;SDS011;62604;49.432;8.680;2024-01-27T09:26:33;7.73;;;4.70;;
10230;SDS011;62604;49.432;8.680;2024-01-27T09:29:00;7.00;;;4.10;;
10230;SDS011;62604;49.432;8.680;2024-01-27T09:31:28;5.97;;;4.47;;
10230;SDS011;62604;49.432;8.680;2024-01-27T09:33:56;6.30;;;3.90;;
10230;SDS011;62604;49.432;8.680;2024-01-27T09:36:23;7.67;;;4.30;;
10230;SDS011;62604;49.432;8.680;2024-01-27T09:38:51;4.63;;;3.50;;
10230;SDS011;62604;49.432;8.680;2024-01-27T09:41:20;5.97;;;3.73;;
10230;SDS011;62604;49.432;8.680;2024-01-27T09:43:47;3.93;;;3.43;;
10230;SDS011;62604;49.432;8.680;2024-01-27T09:46:17;4.20;;;3.20;;
10230;SDS011;62604;49.432;8.680;2024-01-27T09:48:46;5.23;;;3.50;;
10230;SDS011;62604;49.432;8.680;2024-01-27T09:51:14;4.90;;;3.60;;
10230;SDS011;62604;49.432;8.680;2024-01-27T09:53:41;6.07;;;3.37;;
10230;SDS011;62604;49.432;8.680;2024-01-27T09:56:08;6.63;;;4.43;;
10230;SDS011;62604;49.432;8.680;2024-01-27T09:58:36;5.87;;;4.30;;
10230;SDS011;62604;49.432;8.680;2024-01-27T10:01:12;6.00;;;4.27;;
10230;SDS011;62604;49.432;8.680;2024-01-27T10:04:06;5.53;;;3.57;;
10230;SDS011;62604;49.432;8.680;2024-01-27T10:06:35;12.60;;;3.80;;
10230;SDS011;62604;49.432;8.680;2024-01-27T10:09:04;5.77;;;3.30;;
10230;SDS011;62604;49.432;8.680;2024-01-27T10:11:32;6.03;;;3.20;;
10230;SDS011;62604;49.432;8.680;2024-01-27T10:14:06;5.47;;;3.10;;
10230;SDS011;62604;49.432;8.680;2024-01-27T10:16:39;4.23;;;3.07;;
10230;SDS011;62604;49.432;8.680;2024-01-27T10:19:11;7.13;;;2.83;;
10230;SDS011;62604;49.432;8.680;2024-01-27T10:21:41;3.57;;;3.03;;
10230;SDS011;62604;49.432;8.680;2024-01-27T10:24:08;4.77;;;2.30;;
10230;SDS011;62604;49.432;8.680;2024-01-27T10:26:35;3.20;;;2.83;;
10230;SDS011;62604;49.432;8.680;2024-01-27T10:29:02;4.93;;;2.60;;
10230;SDS011;62604;49.432;8.680;2024-01-27T10:31:30;3.77;;;2.60;;
10230;SDS011;62604;49.432;8.680;2024-01-27T10:33:59;5.63;;;2.63;;
10230;SDS011;62604;49.432;8.680;2024-01-27T10:36:39;4.33;;;3.00;;
10230;SDS011;62604;49.432;8.680;2024-01-27T10:39:16;12.33;;;2.73;;
10230;SDS011;62604;49.432;8.680;2024-01-27T10:41:45;8.93;;;2.77;;
10230;SDS011;62604;49.432;8.680;2024-01-27T10:44:13;9.10;;;2.87;;
10230;SDS011;62604;49.432;8.680;2024-01-27T10:46:43;2.67;;;2.40;;
10230;SDS011;62604;49.432;8.680;2024-01-27T10:49:12;7.77;;;2.90;;
10230;SDS011;62604;49.432;8.680;2024-01-27T10:51:43;3.23;;;2.70;;
10230;SDS011;62604;49.432;8.680;2024-01-27T10:54:13;3.17;;;2.23;;
10230;SDS011;62604;49.432;8.680;2024-01-27T10:56:45;4.73;;;2.90;;
10230;SDS011;62604;49.432;8.680;2024-01-27T10:59:12;7.10;;;2.73;;
10230;SDS011;62604;49.432;8.680;2024-01-27T11:01:42;5.23;;;2.77;;
10230;SDS011;62604;49.432;8.680;2024-01-27T11:04:10;5.30;;;2.97;;
10230;SDS011;62604;49.432;8.680;2024-01-27T11:06:39;5.27;;;2.70;;
10230;SDS011;62604;49.432;8.680;2024-01-27T11:09:10;3.13;;;2.63;;
10230;SDS011;62604;49.432;8.680;2024-01-27T11:11:38;4.27;;;2.53;;
10230;SDS011;62604;49.432;8.680;2024-01-27T11:14:07;7.97;;;2.93;;
10230;SDS011;62604;49.432;8.680;2024-01-27T11:16:35;6.33;;;2.43;;
10230;SDS011;62604;49.432;8.680;2024-01-27T11:19:03;6.93;;;2.50;;
10230;SDS011;62604;49.432;8.680;2024-01-27T11:21:31;5.80;;;3.17;;
10230;SDS011;62604;49.432;8.680;2024-01-27T11:23:58;3.13;;;2.83;;
10230;SDS011;62604;49.432;8.680;2024-01-27T11:26:26;3.73;;;2.50;;
10230;SDS011;62604;49.432;8.680;2024-01-27T11:28:53;3.17;;;2.70;;
10230;SDS011;62604;49.432;8.680;2024-01-27T11:31:20;4.53;;;2.60;;
10230;SDS011;62604;49.432;8.680;2024-01-27T11:33:49;6.37;;;2.47;;
10230;SDS011;62604;49.432;8.680;2024-01-27T11:36:19;4.30;;;2.30;;
10230;SDS011;62604;49.432;8.680;2024-01-27T11:38:48;3.73;;;2.37;;
10230;SDS011;62604;49.432;8.680;2024-01-27T11:41:29;4.77;;;2.73;;
10230;SDS011;62604;49.432;8.680;2024-01-27T11:43:57;3.90;;;2.63;;
10230;SDS011;62604;49.432;8.680;2024-01-27T11:46:26;3.43;;;2.53;;
10230;SDS011;62604;49.432;8.680;2024-01-27T11:48:53;6.17;;;3.10;;
10230;SDS011;62604;49.432;8.680;2024-01-27T11:51:20;6.53;;;2.80;;
10230;SDS011;62604;49.432;8.680;2024-01-27T11:53:48;2.77;;;2.23;;
10230;SDS011;62604;49.432;8.680;2024-01-27T11:56:15;3.77;;;2.30;;
10230;SDS011;62604;49.432;8.680;2024-01-27T11:58:47;5.37;;;2.73;;
10230;SDS011;62604;49.432;8.680;2024-01-27T12:01:15;4.17;;;2.30;;
10230;SDS011;62604;49.432;8.680;2024-01-27T12:03:42;3.87;;;2.77;;
10230;SDS011;62604;49.432;8.680;2024-01-27T12:06:10;6.53;;;2.80;;
10230;SDS011;62604;49.432;8.680;2024-01-27T12:08:38;8.70;;;2.93;;
10230;SDS011;62604;49.432;8.680;2024-01-27T12:11:05;5.80;;;3.00;;
10230;SDS011;62604;49.432;8.680;2024-01-27T12:13:32;5.97;;;2.47;;
10230;SDS011;62604;49.432;8.680;2024-01-27T12:16:02;5.63;;;2.80;;
10230;SDS011;62604;49.432;8.680;2024-01-27T12:18:29;8.80;;;3.33;;
10230;SDS011;62604;49.432;8.680;2024-01-27T12:20:57;8.60;;;3.50;;
10230;SDS011;62604;49.432;8.680;2024-01-27T12:23:24;7.53;;;3.80;;
10230;SDS011;62604;49.432;8.680;2024-01-27T12:25:53;7.17;;;2.80;;
10230;SDS011;62604;49.432;8.680;2024-01-27T12:28:22;6.10;;;3.73;;
10230;SDS011;62604;49.432;8.680;2024-01-27T12:30:49;5.70;;;2.87;;
10230;SDS011;62604;49.432;8.680;2024-01-27T12:33:18;5.60;;;2.80;;
10230;SDS011;62604;49.432;8.680;2024-01-27T12:35:49;4.77;;;3.23;;
10230;SDS011;62604;49.432;8.680;2024-01-27T12:38:17;3.57;;;2.77;;
10230;SDS011;62604;49.432;8.680;2024-01-27T12:40:44;6.83;;;2.60;;
10230;SDS011;62604;49.432;8.680;2024-01-27T12:43:11;4.17;;;2.90;;
10230;SDS011;62604;49.432;8.680;2024-01-27T12:45:38;6.57;;;3.20;;
10230;SDS011;62604;49.432;8.680;2024-01-27T12:48:06;5.83;;;3.00;;
10230;SDS011;62604;49.432;8.680;2024-01-27T12:50:34;4.30;;;3.03;;
10230;SDS011;62604;49.432;8.680;2024-01-27T12:53:01;4.97;;;3.03;;
10230;SDS011;62604;49.432;8.680;2024-01-27T12:55:28;6.00;;;2.77;;
10230;SDS011;62604;49.432;8.680;2024-01-27T12:57:55;12.87;;;3.67;;
10230;SDS011;62604;49.432;8.680;2024-01-27T13:00:22;3.13;;;2.37;;
10230;SDS011;62604;49.432;8.680;2024-01-27T13:02:49;7.83;;;3.00;;
10230;SDS011;62604;49.432;8.680;2024-01-27T13:05:16;4.07;;;2.90;;
10230;SDS011;62604;49.432;8.680;2024-01-27T13:07:45;6.17;;;3.03;;
10230;SDS011;62604;49.432;8.680;2024-01-27T13:10:13;7.37;;;2.97;;
10230;SDS011;62604;49.432;8.680;2024-01-27T13:12:40;9.10;;;3.57;;
10230;SDS011;62604;49.432;8.680;2024-01-27T13:15:08;4.37;;;2.87;;
10230;SDS011;62604;49.432;8.680;2024-01-27T13:17:35;8.33;;;3.13;;
10230;SDS011;62604;49.432;8.680;2024-01-27T13:20:02;3.40;;;2.73;;
10230;SDS011;62604;49.432;8.680;2024-01-27T13:22:30;5.47;;;3.00;;
10230;SDS011;62604;49.432;8.680;2024-01-27T13:24:59;7.13;;;2.93;;
10230;SDS011;62604;49.432;8.680;2024-01-27T13:27:29;5.70;;;2.90;;
10230;SDS011;62604;49.432;8.680;2024-01-27T13:29:56;6.30;;;3.20;;
10230;SDS011;62604;49.432;8.680;2024-01-27T13:32:23;4.00;;;2.73;;
10230;SDS011;62604;49.432;8.680;2024-01-27T13:34:51;6.80;;;3.20;;
10230;SDS011;62604;49.432;8.680;2024-01-27T13:37:18;4.40;;;2.47;;
10230;SDS011;62604;49.432;8.680;2024-01-27T13:39:47;3.23;;;2.57;;
10230;SDS011;62604;49.432;8.680;2024-01-27T13:42:18;4.73;;;2.53;;
10230;SDS011;62604;49.432;8.680;2024-01-27T13:44:48;3.30;;;2.30;;
10230;SDS011;62604;49.432;8.680;2024-01-27T13:47:17;6.67;;;3.10;;
10230;SDS011;62604;49.432;8.680;2024-01-27T13:49:44;5.07;;;2.77;;
10230;SDS011;62604;49.432;8.680;2024-01-27T13:52:11;7.97;;;3.70;;
10230;SDS011;62604;49.432;8.680;2024-01-27T13:54:38;12.97;;;5.10;;
10230;SDS011;62604;49.432;8.680;2024-01-27T13:57:05;9.63;;;3.27;;
10230;SDS011;62604;49.432;8.680;2024-01-27T13:59:34;7.93;;;3.60;;
10230;SDS011;62604;49.432;8.680;2024-01-27T14:02:01;11.33;;;4.60;;
10230;SDS011;62604;49.432;8.680;2024-01-27T14:04:28;9.67;;;4.30;;
10230;SDS011;62604;49.432;8.680;2024-01-27T14:06:59;10.53;;;4.03;;
10230;SDS011;62604;49.432;8.680;2024-01-27T14:09:28;10.53;;;3.77;;
10230;SDS011;62604;49.432;8.680;2024-01-27T14:11:55;10.80;;;4.30;;
10230;SDS011;62604;49.432;8.680;2024-01-27T14:14:22;11.47;;;4.17;;
10230;SDS011;62604;49.432;8.680;2024-01-27T14:16:50;4.27;;;2.67;;
10230;SDS011;62604;49.432;8.680;2024-01-27T14:19:17;5.67;;;3.20;;
10230;SDS011;62604;49.432;8.680;2024-01-27T14:21:44;8.60;;;3.40;;
10230;SDS011;62604;49.432;8.680;2024-01-27T14:24:11;12.13;;;3.17;;
10230;SDS011;62604;49.432;8.680;2024-01-27T14:26:38;3.63;;;2.77;;
10230;SDS011;62604;49.432;8.680;2024-01-27T14:29:05;5.47;;;2.60;;
10230;SDS011;62604;49.432;8.680;2024-01-27T14:31:33;2.80;;;2.33;;
10230;SDS011;62604;49.432;8.680;2024-01-27T14:34:01;4.40;;;2.23;;
10230;SDS011;62604;49.432;8.680;2024-01-27T14:36:28;4.03;;;2.67;;
10230;SDS011;62604;49.432;8.680;2024-01-27T14:38:55;5.20;;;2.57;;
10230;SDS011;62604;49.432;8.680;2024-01-27T14:41:22;5.07;;;2.90;;
10230;SDS011;62604;49.432;8.680;2024-01-27T14:43:50;3.23;;;2.53;;
10230;SDS011;62604;49.432;8.680;2024-01-27T14:46:17;2.87;;;2.13;;
10230;SDS011;62604;49.432;8.680;2024-01-27T14:48:44;2.47;;;2.27;;
10230;SDS011;62604;49.432;8.680;2024-01-27T14:51:13;5.03;;;2.60;;
10230;SDS011;62604;49.432;8.680;2024-01-27T14:53:40;5.03;;;2.57;;